Time;durP1;ratioP1;P1;durP2;ratioP2;P2;SDS_P1;SDS_P2;PMS_P1;PMS_P2;Temp;Humidity;BMP_temperature;BMP_pressure;BME280_temperature;BME280_humidity;BME280_pressure;Samples;Min_cycle;Max_cycle;Signal;HPM_P1;HPM_P2
2022/03/10 00:02:07;;;;;;;26.50;13.37;;;-0.50;99.90;;;;;;4990442;28;20207;-72
2022/03/10 00:04:34;;;;;;;32.00;14.83;;;-0.60;99.90;;;;;;4990113;28;20416;-72
2022/03/10 00:07:01;;;;;;;28.57;15.53;;;-0.60;99.90;;;;;;4990779;28;20388;-73
2022/03/10 00:09:27;;;;;;;27.07;13.83;;;-0.60;99.90;;;;;;4990322;28;20477;-72
2022/03/10 00:11:52;;;;;;;27.90;12.70;;;-0.60;99.90;;;;;;4994422;28;20532;-71
2022/03/10 00:14:18;;;;;;;34.37;15.40;;;-0.70;99.90;;;;;;4993483;28;20171;-72
2022/03/10 00:16:43;;;;;;;32.30;14.10;;;-0.70;99.90;;;;;;4994109;28;20175;-73
2022/03/10 00:19:12;;;;;;;27.67;13.73;;;-0.70;99.90;;;;;;4994394;28;20205;-72
2022/03/10 00:21:38;;;;;;;28.00;14.43;;;-0.70;99.90;;;;;;4993956;28;20210;-71
2022/03/10 00:24:04;;;;;;;24.80;12.60;;;-0.80;99.90;;;;;;4993462;28;20740;-71
2022/03/10 00:26:29;;;;;;;27.73;15.87;;;-0.80;99.90;;;;;;4993693;28;20402;-73
2022/03/10 00:28:55;;;;;;;32.50;14.70;;;-0.80;99.90;;;;;;4993023;28;20386;-74
2022/03/10 00:31:21;;;;;;;35.00;14.77;;;-0.80;99.90;;;;;;4993546;28;20846;-73
2022/03/10 00:33:47;;;;;;;37.40;14.70;;;-0.80;99.90;;;;;;4993146;28;20175;-73
2022/03/10 00:36:12;;;;;;;25.10;14.27;;;-0.80;99.90;;;;;;4993379;28;20400;-73
2022/03/10 00:38:38;;;;;;;34.50;15.70;;;-0.80;99.90;;;;;;4996771;28;20197;-76
2022/03/10 00:41:04;;;;;;;30.63;14.77;;;-0.80;99.90;;;;;;4993752;28;20194;-75
2022/03/10 00:43:29;;;;;;;39.33;16.90;;;-0.90;99.90;;;;;;4991350;28;20244;-75
2022/03/10 00:45:55;;;;;;;29.80;15.63;;;-0.90;99.90;;;;;;4993221;28;20179;-75
2022/03/10 00:48:20;;;;;;;34.30;17.27;;;-0.90;99.90;;;;;;4993492;28;20182;-75
2022/03/10 00:50:46;;;;;;;30.10;14.83;;;-0.90;99.90;;;;;;4993368;28;20180;-76
2022/03/10 00:53:11;;;;;;;38.00;16.13;;;-0.90;99.90;;;;;;4992538;28;20179;-75
2022/03/10 00:55:37;;;;;;;30.53;14.90;;;-0.90;99.90;;;;;;4992248;28;20292;-75
2022/03/10 00:58:03;;;;;;;34.37;16.13;;;-0.90;99.90;;;;;;4993297;28;20188;-74
2022/03/10 01:00:29;;;;;;;36.07;15.90;;;-0.90;99.90;;;;;;4992646;28;20171;-76
2022/03/10 01:02:57;;;;;;;31.40;15.87;;;-0.90;99.90;;;;;;4991230;28;20662;-76
2022/03/10 01:05:23;;;;;;;37.47;16.73;;;-0.90;99.90;;;;;;4993108;28;20440;-75
2022/03/10 01:07:49;;;;;;;28.07;16.00;;;-1.00;99.90;;;;;;4992848;28;21059;-76
2022/03/10 01:10:16;;;;;;;29.67;14.80;;;-1.00;99.90;;;;;;4992789;28;20174;-74
2022/03/10 01:12:45;;;;;;;36.53;14.43;;;-1.00;99.90;;;;;;4992964;28;20918;-74
2022/03/10 01:15:12;;;;;;;31.50;15.20;;;-1.10;99.90;;;;;;4992831;28;20915;-75
2022/03/10 01:17:38;;;;;;;31.47;14.63;;;-1.20;99.90;;;;;;4991988;28;20454;-76
2022/03/10 01:20:05;;;;;;;29.07;16.23;;;-1.20;99.90;;;;;;4992703;28;20517;-76
2022/03/10 01:22:30;;;;;;;31.57;16.10;;;-1.20;99.90;;;;;;4991233;28;20482;-75
2022/03/10 01:24:56;;;;;;;29.20;15.47;;;-1.20;99.90;;;;;;4992209;28;20422;-76
2022/03/10 01:27:22;;;;;;;31.27;13.90;;;-1.20;99.90;;;;;;4992672;28;20263;-74
2022/03/10 01:29:47;;;;;;;27.37;14.37;;;-1.20;99.90;;;;;;4992881;28;20187;-74
2022/03/10 01:32:13;;;;;;;32.57;15.33;;;-1.20;99.90;;;;;;4992570;28;20230;-75
2022/03/10 01:34:39;;;;;;;28.80;13.50;;;-1.20;99.90;;;;;;4992121;28;20627;-76
2022/03/10 01:37:05;;;;;;;32.43;15.80;;;-1.20;99.90;;;;;;4991998;28;20171;-76
2022/03/10 01:39:32;;;;;;;31.03;14.13;;;-1.30;99.90;;;;;;4992496;28;20246;-73
2022/03/10 01:41:59;;;;;;;35.77;14.30;;;-1.20;99.90;;;;;;4992283;28;20233;-73
2022/03/10 01:44:24;;;;;;;29.47;14.17;;;-1.20;99.90;;;;;;4991436;28;20881;-74
2022/03/10 01:46:50;;;;;;;30.73;14.77;;;-1.30;99.90;;;;;;4992791;28;20501;-73
2022/03/10 01:49:16;;;;;;;32.73;15.77;;;-1.30;99.90;;;;;;4991699;28;20201;-73
2022/03/10 01:51:42;;;;;;;32.97;15.60;;;-1.30;99.90;;;;;;4990870;28;20199;-74
2022/03/10 01:54:07;;;;;;;27.67;14.27;;;-1.30;99.90;;;;;;4991716;28;20204;-73
2022/03/10 01:56:33;;;;;;;32.40;15.23;;;-1.40;99.90;;;;;;4991216;28;20639;-73
2022/03/10 01:59:01;;;;;;;30.20;16.23;;;-1.40;99.90;;;;;;4959572;28;20199;-76
2022/03/10 03:32:05;;;;;;;29.50;12.80;;;-1.90;99.90;;;;;;5438988;23;20486;-72
2022/03/10 03:34:30;;;;;;;28.03;12.60;;;-1.90;99.90;;;;;;5000610;28;20420;-73
2022/03/10 03:36:56;;;;;;;30.33;13.87;;;-1.90;99.90;;;;;;5010694;28;20412;-72
2022/03/10 03:39:22;;;;;;;23.63;13.30;;;-1.90;99.90;;;;;;5004428;28;20178;-72
2022/03/10 03:41:47;;;;;;;28.70;14.00;;;-2.00;99.90;;;;;;4982183;28;20703;-72
2022/03/10 03:44:13;;;;;;;29.97;14.03;;;-2.00;99.90;;;;;;4990197;28;20266;-72
2022/03/10 03:46:39;;;;;;;23.90;12.87;;;-2.00;99.90;;;;;;4996785;28;20178;-72
2022/03/10 03:49:05;;;;;;;28.50;12.40;;;-2.00;99.90;;;;;;4997322;28;20211;-72
2022/03/10 03:51:31;;;;;;;25.60;13.20;;;-2.00;99.90;;;;;;4996866;28;20450;-72
2022/03/10 03:53:57;;;;;;;34.20;14.03;;;-2.00;99.90;;;;;;4996100;28;20177;-72
2022/03/10 03:56:22;;;;;;;26.70;14.13;;;-2.00;99.90;;;;;;4997104;28;20757;-72
2022/03/10 03:58:48;;;;;;;25.87;12.67;;;-2.00;99.90;;;;;;4997509;28;20256;-72
2022/03/10 04:01:13;;;;;;;24.47;12.53;;;-2.10;99.90;;;;;;4996473;28;20669;-73
2022/03/10 04:03:39;;;;;;;22.70;13.30;;;-2.00;99.90;;;;;;4997098;28;20173;-73
2022/03/10 04:06:05;;;;;;;24.97;12.40;;;-2.10;99.90;;;;;;4997943;28;20201;-71
2022/03/10 04:08:30;;;;;;;24.47;12.90;;;-2.20;99.90;;;;;;4998088;28;20182;-73
2022/03/10 04:10:56;;;;;;;23.63;11.33;;;-2.20;99.90;;;;;;4997182;28;20574;-73
2022/03/10 04:13:22;;;;;;;23.53;11.70;;;-2.20;99.90;;;;;;4996243;28;20446;-73
2022/03/10 04:15:49;;;;;;;27.43;12.30;;;-2.20;99.90;;;;;;4996887;28;20259;-72
2022/03/10 04:18:16;;;;;;;26.17;12.33;;;-2.30;99.90;;;;;;4997204;28;20184;-73
2022/03/10 04:20:43;;;;;;;24.97;11.83;;;-2.30;99.90;;;;;;4996571;28;20437;-73
2022/03/10 04:23:09;;;;;;;26.20;13.67;;;-2.30;99.90;;;;;;4997133;28;20460;-73
2022/03/10 04:25:35;;;;;;;27.63;12.23;;;-2.30;99.90;;;;;;4997854;28;20788;-73
2022/03/10 04:28:00;;;;;;;22.10;12.90;;;-2.30;99.90;;;;;;4997762;28;20429;-72
2022/03/10 04:30:26;;;;;;;27.67;11.60;;;-2.30;99.90;;;;;;4996310;28;20176;-72
2022/03/10 04:32:52;;;;;;;23.30;12.57;;;-2.30;99.90;;;;;;4995996;28;20255;-72
2022/03/10 04:35:19;;;;;;;18.67;11.43;;;-2.30;99.90;;;;;;4997170;28;20236;-72
2022/03/10 04:37:49;;;;;;;27.40;12.80;;;-2.30;99.90;;;;;;4996908;28;20198;-72
2022/03/10 04:40:15;;;;;;;30.93;13.63;;;-2.40;99.90;;;;;;4996878;28;20388;-72
2022/03/10 04:42:41;;;;;;;23.37;11.73;;;-2.40;99.90;;;;;;4996840;28;20869;-72
2022/03/10 04:45:07;;;;;;;23.53;12.87;;;-2.40;99.90;;;;;;4995767;28;20412;-72
2022/03/10 04:47:34;;;;;;;28.90;12.93;;;-2.40;99.90;;;;;;4996510;28;20394;-72
2022/03/10 04:49:59;;;;;;;24.57;11.10;;;-2.40;99.90;;;;;;4996910;28;20474;-72
2022/03/10 04:52:26;;;;;;;24.43;13.17;;;-2.50;99.90;;;;;;4995939;28;20417;-71
2022/03/10 04:54:52;;;;;;;24.90;12.17;;;-2.40;99.90;;;;;;4996283;28;20177;-72
2022/03/10 04:57:18;;;;;;;27.07;13.47;;;-2.50;99.90;;;;;;4993525;28;20402;-72
2022/03/10 04:59:43;;;;;;;27.33;12.40;;;-2.50;99.90;;;;;;4993781;28;20182;-71
2022/03/10 05:02:09;;;;;;;22.60;11.30;;;-2.50;99.90;;;;;;4993022;28;20214;-73
2022/03/10 05:04:35;;;;;;;30.90;14.43;;;-2.30;99.90;;;;;;4992465;28;20181;-73
2022/03/10 05:07:00;;;;;;;23.60;11.50;;;-2.40;99.90;;;;;;4993866;28;20174;-73
2022/03/10 05:09:26;;;;;;;26.77;13.13;;;-2.50;99.90;;;;;;4993184;28;20643;-72
2022/03/10 05:11:51;;;;;;;22.67;12.57;;;-2.50;99.90;;;;;;4993625;28;20676;-73
2022/03/10 05:14:17;;;;;;;31.00;14.60;;;-2.50;99.90;;;;;;4992471;28;20656;-72
2022/03/10 05:16:42;;;;;;;29.20;12.80;;;-2.60;99.90;;;;;;4992836;28;21005;-72
2022/03/10 05:19:08;;;;;;;24.70;12.53;;;-2.50;99.90;;;;;;4993642;28;20314;-72
2022/03/10 05:21:34;;;;;;;24.97;12.87;;;-2.50;99.90;;;;;;4992749;28;20296;-73
2022/03/10 05:24:00;;;;;;;26.97;12.10;;;-2.60;99.90;;;;;;4992852;28;20183;-72
2022/03/10 05:26:25;;;;;;;26.30;12.90;;;-2.50;99.90;;;;;;4993097;28;20411;-72
2022/03/10 05:28:51;;;;;;;27.20;13.20;;;-2.50;99.90;;;;;;4993656;28;20178;-73
2022/03/10 05:31:16;;;;;;;24.60;13.27;;;-2.50;99.90;;;;;;4993101;28;20716;-72
2022/03/10 05:33:42;;;;;;;29.20;14.67;;;-2.60;99.90;;;;;;4992625;28;20523;-73
2022/03/10 05:36:07;;;;;;;22.47;10.83;;;-2.60;99.90;;;;;;4993091;28;20209;-72
2022/03/10 05:38:33;;;;;;;23.73;12.50;;;-2.60;99.90;;;;;;4992657;28;20186;-73
2022/03/10 05:41:00;;;;;;;25.03;13.97;;;-2.60;99.90;;;;;;4993023;28;20309;-73
2022/03/10 05:43:25;;;;;;;28.57;15.20;;;-2.60;99.90;;;;;;4991575;28;20213;-71
2022/03/10 05:45:51;;;;;;;29.93;12.93;;;-2.60;99.90;;;;;;4993065;28;20397;-75
2022/03/10 05:48:17;;;;;;;28.67;13.73;;;-2.60;99.90;;;;;;4992678;28;20173;-74
2022/03/10 05:50:42;;;;;;;29.17;12.33;;;-2.60;99.90;;;;;;4992362;28;20184;-75
2022/03/10 05:53:08;;;;;;;28.10;13.17;;;-2.50;99.90;;;;;;4991568;28;20259;-74
2022/03/10 05:55:34;;;;;;;30.60;15.77;;;-2.50;99.90;;;;;;4992392;28;20712;-75
2022/03/10 05:57:59;;;;;;;27.37;14.47;;;-2.40;99.90;;;;;;4993038;28;20654;-74
2022/03/10 06:00:25;;;;;;;33.10;15.23;;;-2.30;99.90;;;;;;4992027;28;20654;-75
2022/03/10 06:02:51;;;;;;;29.03;16.37;;;-2.20;99.90;;;;;;4991709;28;20211;-75
2022/03/10 06:05:17;;;;;;;34.23;15.70;;;-2.00;99.90;;;;;;4992299;28;20182;-75
2022/03/10 06:07:43;;;;;;;30.00;15.37;;;-1.80;99.90;;;;;;4991539;28;20397;-75
2022/03/10 06:10:09;;;;;;;31.77;16.40;;;-1.80;99.90;;;;;;4992219;28;20412;-74
2022/03/10 06:12:34;;;;;;;30.53;16.00;;;-1.00;99.90;;;;;;4990411;28;20264;-75
2022/03/10 06:15:05;;;;;;;26.73;14.10;;;0.10;99.90;;;;;;4978303;28;20439;-75
2022/03/10 06:17:31;;;;;;;26.73;15.57;;;1.30;99.90;;;;;;4982752;28;20188;-75
2022/03/10 06:19:57;;;;;;;25.97;13.67;;;2.40;99.90;;;;;;4990647;28;20756;-75
2022/03/10 06:22:26;;;;;;;28.30;15.13;;;3.50;99.90;;;;;;4990180;28;20267;-75
2022/03/10 06:24:52;;;;;;;31.20;14.43;;;4.30;99.90;;;;;;4990937;28;20421;-76
2022/03/10 06:27:19;;;;;;;27.47;15.77;;;5.40;99.90;;;;;;4991134;28;20420;-76
2022/03/10 06:29:45;;;;;;;26.90;14.20;;;5.70;99.90;;;;;;4991851;28;20181;-75
2022/03/10 06:32:12;;;;;;;30.87;17.27;;;6.40;99.90;;;;;;4991712;28;20487;-76
2022/03/10 06:34:38;;;;;;;28.77;14.77;;;6.40;99.90;;;;;;4990594;28;20453;-76
2022/03/10 06:37:04;;;;;;;24.60;15.40;;;7.10;99.90;;;;;;4991779;28;20422;-76
2022/03/10 06:39:30;;;;;;;25.63;16.17;;;7.80;99.90;;;;;;4991250;28;20415;-77
2022/03/10 06:41:56;;;;;;;23.80;15.40;;;8.20;99.90;;;;;;4991494;28;20458;-77
2022/03/10 06:44:21;;;;;;;28.50;17.47;;;8.50;99.90;;;;;;4990813;28;20214;-76
2022/03/10 06:46:47;;;;;;;25.23;17.00;;;9.00;99.90;;;;;;4991579;28;20183;-76
2022/03/10 06:49:12;;;;;;;26.70;17.30;;;9.00;99.90;;;;;;4991081;28;20667;-77
2022/03/10 06:51:38;;;;;;;22.90;15.13;;;9.40;99.90;;;;;;4991867;28;20274;-76
2022/03/10 06:54:04;;;;;;;27.27;16.20;;;9.90;99.90;;;;;;4992103;28;20198;-76
2022/03/10 06:56:29;;;;;;;26.17;17.53;;;10.60;99.90;;;;;;4991052;28;20183;-77
2022/03/10 06:58:55;;;;;;;25.37;17.70;;;10.90;99.90;;;;;;4991150;28;20305;-76
2022/03/10 07:01:20;;;;;;;30.87;18.20;;;10.60;99.90;;;;;;4991045;28;20211;-77
2022/03/10 07:03:46;;;;;;;26.27;17.40;;;11.10;99.90;;;;;;4990888;28;20640;-77
2022/03/10 07:06:11;;;;;;;24.00;16.30;;;11.30;99.90;;;;;;4991546;28;20206;-77
2022/03/10 07:08:37;;;;;;;24.73;17.10;;;11.80;98.40;;;;;;4990877;28;20221;-78
2022/03/10 07:11:03;;;;;;;31.57;18.43;;;11.70;98.40;;;;;;4990582;28;20462;-78
2022/03/10 07:13:28;;;;;;;30.60;17.77;;;12.00;98.10;;;;;;4989596;28;20350;-77
2022/03/10 07:15:54;;;;;;;23.40;17.50;;;12.00;97.70;;;;;;4991332;28;20190;-76
2022/03/10 07:18:19;;;;;;;25.83;17.93;;;12.10;97.30;;;;;;4991465;28;20186;-77
2022/03/10 07:20:45;;;;;;;25.50;17.40;;;12.30;97.70;;;;;;4990705;28;20171;-76
2022/03/10 07:23:11;;;;;;;27.37;17.63;;;12.30;96.90;;;;;;4989804;28;20234;-77
2022/03/10 07:25:36;;;;;;;25.43;17.00;;;13.60;96.10;;;;;;4990833;28;20175;-76
2022/03/10 07:28:02;;;;;;;27.73;18.43;;;13.20;95.50;;;;;;4991336;28;20179;-77
2022/03/10 07:30:27;;;;;;;22.10;16.77;;;13.10;95.50;;;;;;4990685;28;20168;-76
2022/03/10 07:32:53;;;;;;;31.13;18.37;;;13.50;95.10;;;;;;4990028;28;20569;-76
2022/03/10 07:35:18;;;;;;;29.53;17.07;;;14.10;93.90;;;;;;4988114;28;20638;-76
2022/03/10 07:37:46;;;;;;;31.33;18.10;;;14.30;92.70;;;;;;4988664;28;20250;-76
2022/03/10 07:40:12;;;;;;;29.77;18.27;;;14.00;91.90;;;;;;4990470;28;20171;-76
2022/03/10 07:42:38;;;;;;;30.60;19.03;;;13.70;92.40;;;;;;4990288;28;20512;-76
2022/03/10 07:45:04;;;;;;;35.30;20.57;;;13.00;93.50;;;;;;4989735;28;20796;-76
2022/03/10 07:47:29;;;;;;;33.13;21.07;;;12.90;93.10;;;;;;4989838;28;20592;-75
2022/03/10 07:49:57;;;;;;;36.17;21.53;;;12.60;93.50;;;;;;4990694;28;20506;-76
2022/03/10 07:52:22;;;;;;;33.87;20.40;;;12.30;93.90;;;;;;4989883;28;20600;-76
2022/03/10 07:54:48;;;;;;;33.40;21.83;;;12.20;94.50;;;;;;4988487;28;20522;-75
2022/03/10 07:57:14;;;;;;;39.60;21.63;;;12.00;94.30;;;;;;4985179;28;20180;-75
2022/03/10 07:59:39;;;;;;;33.70;22.33;;;11.90;94.70;;;;;;4978717;28;20188;-75
2022/03/10 08:02:05;;;;;;;36.93;21.20;;;12.20;95.60;;;;;;4977032;28;20570;-74
2022/03/10 08:04:30;;;;;;;38.77;22.17;;;12.60;94.10;;;;;;4979074;28;20745;-87
2022/03/10 08:06:56;;;;;;;40.70;21.67;;;12.50;94.50;;;;;;4987458;28;20183;-76
2022/03/10 08:09:22;;;;;;;34.10;21.33;;;12.80;94.40;;;;;;4977224;28;20176;-75
2022/03/10 08:11:47;;;;;;;42.47;22.87;;;12.90;93.90;;;;;;4978600;28;20283;-75
2022/03/10 08:14:13;;;;;;;37.77;21.80;;;13.00;93.20;;;;;;4978194;28;20889;-75
2022/03/10 08:16:40;;;;;;;31.73;19.77;;;13.30;94.30;;;;;;4978805;28;20183;-76
2022/03/10 08:19:08;;;;;;;31.13;20.33;;;13.10;92.20;;;;;;4977257;28;20184;-76
2022/03/10 08:21:34;;;;;;;30.83;20.23;;;13.00;93.10;;;;;;4977828;28;20822;-75
2022/03/10 08:24:00;;;;;;;32.37;18.80;;;13.10;93.00;;;;;;4977212;28;20474;-76
2022/03/10 08:26:26;;;;;;;36.17;18.77;;;13.20;91.40;;;;;;4977636;28;20186;-75
2022/03/10 08:28:53;;;;;;;38.73;20.50;;;13.50;91.30;;;;;;4977315;28;20202;-76
2022/03/10 08:31:19;;;;;;;31.90;18.10;;;13.60;92.00;;;;;;4975040;28;20522;-75
2022/03/10 08:33:45;;;;;;;29.27;18.33;;;13.80;90.60;;;;;;4978888;28;20856;-75
2022/03/10 08:36:11;;;;;;;27.40;17.93;;;13.70;90.00;;;;;;4979907;28;20415;-75
2022/03/10 08:38:37;;;;;;;31.40;19.40;;;14.00;90.30;;;;;;4978981;28;20263;-75
2022/03/10 08:41:02;;;;;;;35.17;18.00;;;13.50;90.10;;;;;;4978992;28;21618;-75
2022/03/10 08:43:30;;;;;;;29.73;17.60;;;13.90;90.50;;;;;;4978027;28;20271;-75
2022/03/10 08:45:56;;;;;;;43.73;18.43;;;14.00;91.60;;;;;;4980962;28;20702;-75
2022/03/10 08:48:22;;;;;;;34.17;19.00;;;14.10;90.70;;;;;;4979168;28;20420;-75
2022/03/10 08:50:47;;;;;;;32.87;18.10;;;14.20;90.30;;;;;;4981844;28;20443;-75
2022/03/10 08:53:13;;;;;;;30.23;16.40;;;14.50;89.80;;;;;;4982687;28;20758;-75
2022/03/10 08:55:38;;;;;;;27.80;16.97;;;14.60;88.70;;;;;;4982632;28;20219;-75
2022/03/10 08:58:04;;;;;;;21.80;16.07;;;14.40;90.20;;;;;;4981753;28;20483;-76
2022/03/10 09:00:29;;;;;;;22.10;15.07;;;14.70;86.70;;;;;;4981493;28;20266;-75
2022/03/10 09:02:56;;;;;;;26.27;15.87;;;14.60;88.80;;;;;;4980757;28;20207;-76
2022/03/10 09:05:21;;;;;;;25.83;16.13;;;14.90;87.80;;;;;;4981084;28;20184;-76
2022/03/10 09:07:47;;;;;;;25.07;16.47;;;15.10;85.40;;;;;;4979822;28;20417;-75
2022/03/10 09:10:13;;;;;;;27.93;18.20;;;15.20;88.50;;;;;;4981629;28;20584;-76
2022/03/10 09:12:39;;;;;;;26.77;17.30;;;15.10;84.60;;;;;;4980745;28;20230;-75
2022/03/10 09:15:06;;;;;;;31.87;18.30;;;15.40;85.60;;;;;;4980702;28;20541;-75
2022/03/10 09:17:32;;;;;;;25.47;16.57;;;15.30;83.70;;;;;;4980715;28;20415;-76
2022/03/10 09:19:57;;;;;;;24.70;16.27;;;15.40;85.40;;;;;;4979936;28;20934;-76
2022/03/10 09:22:25;;;;;;;29.43;18.07;;;15.40;84.30;;;;;;4981755;28;20215;-76
2022/03/10 09:24:54;;;;;;;25.97;16.67;;;15.50;83.50;;;;;;4980477;28;20187;-74
2022/03/10 09:27:19;;;;;;;23.07;14.90;;;15.70;83.10;;;;;;4980464;28;20515;-74
2022/03/10 09:29:45;;;;;;;24.40;16.10;;;15.90;84.30;;;;;;4979888;28;20494;-74
2022/03/10 09:32:11;;;;;;;27.27;16.67;;;16.10;84.00;;;;;;4980389;28;20282;-74
2022/03/10 09:34:36;;;;;;;24.07;16.17;;;15.90;81.40;;;;;;4978908;28;20572;-74
2022/03/10 09:37:02;;;;;;;25.43;15.73;;;15.90;80.80;;;;;;4980781;28;20427;-74
2022/03/10 09:39:28;;;;;;;19.77;13.43;;;15.70;81.40;;;;;;4980347;28;20176;-74
2022/03/10 09:41:56;;;;;;;25.97;16.00;;;15.80;83.30;;;;;;4981141;28;20200;-74
2022/03/10 09:44:21;;;;;;;23.10;16.43;;;15.90;80.50;;;;;;4978694;28;20186;-74
2022/03/10 09:46:50;;;;;;;20.93;14.27;;;15.70;81.00;;;;;;4979943;28;20422;-74
2022/03/10 09:49:18;;;;;;;25.73;14.43;;;15.50;79.20;;;;;;4978490;28;20169;-73
2022/03/10 09:51:44;;;;;;;24.70;14.83;;;15.10;81.00;;;;;;4981066;28;20525;-74
2022/03/10 09:54:09;;;;;;;20.90;14.43;;;15.70;83.90;;;;;;4979842;28;20414;-74
2022/03/10 09:56:36;;;;;;;20.80;13.83;;;16.40;81.40;;;;;;4980261;28;20184;-74
2022/03/10 09:59:08;;;;;;;20.83;13.70;;;16.40;79.50;;;;;;4978546;28;20694;-74
2022/03/10 10:01:34;;;;;;;17.33;11.70;;;16.40;78.60;;;;;;4978396;28;20749;-74
2022/03/10 10:04:00;;;;;;;17.83;11.87;;;16.40;79.60;;;;;;4977560;28;20423;-75
2022/03/10 10:06:25;;;;;;;19.60;11.20;;;16.50;79.90;;;;;;4977132;28;20598;-74
2022/03/10 10:08:55;;;;;;;18.53;13.00;;;16.70;79.00;;;;;;4978218;28;20188;-72
2022/03/10 10:11:31;;;;;;;16.30;11.30;;;16.90;78.10;;;;;;4980410;28;20235;-71
2022/03/10 10:13:56;;;;;;;17.73;12.70;;;17.10;77.40;;;;;;4980224;28;20412;-72
2022/03/10 10:16:22;;;;;;;15.20;11.40;;;17.20;77.70;;;;;;4980614;28;20427;-72
2022/03/10 10:18:54;;;;;;;18.00;12.20;;;16.80;78.90;;;;;;4980372;28;20245;-72
2022/03/10 10:21:21;;;;;;;16.90;11.17;;;17.00;77.00;;;;;;4981050;28;20475;-71
2022/03/10 10:23:48;;;;;;;21.60;11.43;;;16.90;75.90;;;;;;4977791;28;20436;-73
2022/03/10 10:26:14;;;;;;;17.60;11.40;;;17.00;75.70;;;;;;4980078;28;20589;-72
2022/03/10 10:28:41;;;;;;;13.63;9.53;;;17.20;75.60;;;;;;4978422;28;20414;-73
2022/03/10 10:31:12;;;;;;;14.13;9.63;;;17.60;74.90;;;;;;4979512;28;20204;-73
2022/03/10 10:33:40;;;;;;;12.20;9.80;;;17.30;73.60;;;;;;4978766;28;20489;-73
2022/03/10 10:36:18;;;;;;;16.73;11.43;;;17.40;76.00;;;;;;4976171;28;20963;-72
2022/03/10 10:38:47;;;;;;;15.70;8.70;;;17.10;74.00;;;;;;4979630;28;20426;-72
2022/03/10 10:41:22;;;;;;;14.03;9.73;;;16.70;73.20;;;;;;4980991;28;20950;-72
2022/03/10 10:44:09;;;;;;;14.60;9.17;;;16.80;73.70;;;;;;4978652;28;20820;-72
2022/03/10 10:46:37;;;;;;;11.33;9.00;;;17.00;73.90;;;;;;4977732;28;20427;-72
2022/03/10 10:49:19;;;;;;;12.43;8.63;;;17.10;74.00;;;;;;4978275;28;20411;-73
2022/03/10 10:51:56;;;;;;;16.73;8.40;;;17.20;73.20;;;;;;4979447;28;20466;-72
2022/03/10 10:54:27;;;;;;;11.80;8.73;;;17.10;74.00;;;;;;4977314;28;20410;-72
2022/03/10 10:57:05;;;;;;;11.57;8.37;;;17.40;73.40;;;;;;4978475;28;20449;-73
2022/03/10 10:59:34;;;;;;;11.70;8.70;;;17.10;72.40;;;;;;4977749;28;20426;-73
2022/03/10 11:02:27;;;;;;;13.47;8.50;;;17.20;72.30;;;;;;4978741;28;20800;-74
2022/03/10 11:04:53;;;;;;;12.23;7.50;;;17.20;71.90;;;;;;4976785;28;20434;-73
2022/03/10 11:07:21;;;;;;;10.33;8.03;;;17.60;72.40;;;;;;4978008;28;21096;-73
2022/03/10 11:09:48;;;;;;;7.87;7.07;;;17.50;70.60;;;;;;4978014;28;20454;-74
2022/03/10 11:12:16;;;;;;;11.43;7.73;;;17.40;70.40;;;;;;4980509;28;20434;-74
2022/03/10 11:14:44;;;;;;;17.57;10.87;;;17.40;70.30;;;;;;4978305;28;21043;-74
2022/03/10 11:17:11;;;;;;;9.00;7.20;;;17.10;70.60;;;;;;4978545;28;20957;-74
2022/03/10 11:19:44;;;;;;;11.90;6.53;;;17.40;70.60;;;;;;4978140;28;20438;-74
2022/03/10 11:22:55;;;;;;;4.37;3.80;;;17.70;69.20;;;;;;4980283;28;20461;-74
2022/03/10 11:25:52;;;;;;;3.87;3.40;;;17.90;67.10;;;;;;4978753;28;20424;-74
2022/03/10 11:28:22;;;;;;;17.77;3.67;;;17.60;66.10;;;;;;4978187;28;20412;-75
2022/03/10 11:30:50;;;;;;;3.73;3.30;;;17.50;67.80;;;;;;4982966;28;20418;-75
2022/03/10 11:33:17;;;;;;;5.03;2.93;;;17.40;67.50;;;;;;4981828;28;20561;-75
2022/03/10 11:35:46;;;;;;;8.23;3.63;;;17.10;65.60;;;;;;4984987;28;20426;-75
2022/03/10 11:38:13;;;;;;;5.87;3.57;;;16.90;65.70;;;;;;4986519;28;20419;-75
2022/03/10 11:40:52;;;;;;;3.03;2.70;;;16.70;65.50;;;;;;4986788;28;20414;-75
2022/03/10 11:43:33;;;;;;;3.53;3.23;;;16.50;66.00;;;;;;4986565;28;20522;-75
2022/03/10 11:46:18;;;;;;;4.30;3.70;;;16.40;66.00;;;;;;4988989;28;20458;-74
2022/03/10 11:48:59;;;;;;;3.37;3.07;;;16.40;66.00;;;;;;4989317;28;20430;-74
2022/03/10 11:51:39;;;;;;;6.17;3.47;;;16.70;66.10;;;;;;4993346;28;20489;-74
2022/03/10 11:54:06;;;;;;;3.90;2.90;;;16.60;66.30;;;;;;4992183;28;20418;-74
2022/03/10 11:56:44;;;;;;;4.63;4.00;;;16.30;66.20;;;;;;4990510;28;20419;-75
2022/03/10 11:59:27;;;;;;;3.97;3.67;;;16.50;66.50;;;;;;4984233;28;20442;-75
2022/03/10 12:01:56;;;;;;;3.90;3.47;;;16.50;67.00;;;;;;4981256;28;20458;-76
2022/03/10 12:04:40;;;;;;;3.30;2.90;;;16.50;65.50;;;;;;4978765;28;20446;-76
2022/03/10 12:07:09;;;;;;;3.40;3.00;;;16.40;65.20;;;;;;4982082;28;20429;-76
2022/03/10 12:09:41;;;;;;;3.70;2.83;;;16.30;65.80;;;;;;4980998;28;20424;-76
2022/03/10 12:12:20;;;;;;;4.03;2.60;;;16.00;63.50;;;;;;4983143;28;20463;-76
2022/03/10 12:14:47;;;;;;;4.20;3.40;;;15.90;64.70;;;;;;4981862;28;20454;-76
2022/03/10 12:17:52;;;;;;;4.83;3.40;;;15.90;64.50;;;;;;4982285;28;20415;-76
2022/03/10 12:20:20;;;;;;;3.87;3.07;;;15.80;64.70;;;;;;4981421;28;20423;-76
2022/03/10 12:23:06;;;;;;;3.57;2.67;;;15.90;65.40;;;;;;4981256;28;20557;-75
2022/03/10 12:25:39;;;;;;;30.47;15.93;;;15.70;63.10;;;;;;4981271;28;20438;-76
2022/03/10 12:28:05;;;;;;;5.07;4.27;;;15.50;64.10;;;;;;4980901;28;20496;-75
2022/03/10 12:30:30;;;;;;;3.10;2.87;;;15.60;64.40;;;;;;4980154;28;20510;-75
2022/03/10 12:32:57;;;;;;;3.30;3.00;;;15.50;62.70;;;;;;4981056;28;20222;-75
2022/03/10 12:35:28;;;;;;;3.07;2.77;;;15.30;63.10;;;;;;4979053;28;20211;-76
2022/03/10 12:37:55;;;;;;;2.53;2.33;;;15.30;63.20;;;;;;4980656;28;20909;-76
2022/03/10 12:40:23;;;;;;;4.90;3.13;;;15.30;63.30;;;;;;4979661;28;20506;-74
2022/03/10 12:42:48;;;;;;;2.77;2.57;;;15.10;62.50;;;;;;4981050;28;20473;-75
2022/03/10 12:45:19;;;;;;;4.17;3.27;;;15.00;63.00;;;;;;4980528;28;20434;-74
2022/03/10 12:47:52;;;;;;;3.40;3.07;;;15.10;63.40;;;;;;4980082;28;20198;-73
2022/03/10 12:50:18;;;;;;;4.83;2.93;;;15.00;61.00;;;;;;4982503;28;20445;-77
2022/03/10 12:52:43;;;;;;;4.33;3.80;;;15.00;61.90;;;;;;4981960;28;20478;-75
2022/03/10 12:55:10;;;;;;;4.53;3.30;;;15.00;62.60;;;;;;4981518;28;20198;-74
2022/03/10 12:57:37;;;;;;;5.20;3.40;;;15.30;64.40;;;;;;4980632;28;20175;-73
2022/03/10 13:00:17;;;;;;;6.30;4.47;;;15.10;61.80;;;;;;4980973;28;20415;-75
2022/03/10 13:02:43;;;;;;;5.43;4.03;;;15.10;61.80;;;;;;4980734;28;20980;-75
2022/03/10 13:05:09;;;;;;;4.07;3.60;;;15.20;62.10;;;;;;4980841;28;20521;-75
2022/03/10 13:07:35;;;;;;;4.37;3.63;;;15.20;61.70;;;;;;4981040;28;20194;-75
2022/03/10 13:10:06;;;;;;;8.13;3.97;;;15.20;61.90;;;;;;4981766;28;20513;-77
2022/03/10 13:12:37;;;;;;;5.27;3.67;;;15.20;60.60;;;;;;4981917;28;20857;-76
2022/03/10 13:15:04;;;;;;;6.60;4.37;;;15.20;60.00;;;;;;4981034;28;21380;-75
2022/03/10 13:17:32;;;;;;;4.67;3.67;;;15.30;61.30;;;;;;4978459;28;20453;-74
2022/03/10 13:19:58;;;;;;;5.03;3.70;;;15.30;61.40;;;;;;4980386;28;20493;-76
2022/03/10 13:22:24;;;;;;;5.07;4.40;;;15.20;62.20;;;;;;4980512;28;20965;-74
2022/03/10 13:24:52;;;;;;;4.23;3.80;;;15.20;61.40;;;;;;4980074;28;20184;-77
2022/03/10 13:27:20;;;;;;;5.63;4.50;;;15.30;60.80;;;;;;4980076;28;20176;-75
2022/03/10 13:29:48;;;;;;;3.97;3.57;;;15.20;60.40;;;;;;4991808;28;20464;-76
2022/03/10 13:32:18;;;;;;;4.17;3.60;;;15.10;59.80;;;;;;4992141;28;20482;-76
2022/03/10 13:34:45;;;;;;;4.00;3.47;;;15.10;59.80;;;;;;4990709;28;20445;-76
2022/03/10 13:37:12;;;;;;;3.93;3.10;;;15.10;59.50;;;;;;4993344;28;20938;-75
2022/03/10 13:39:38;;;;;;;5.40;4.00;;;14.90;57.90;;;;;;4993822;28;20445;-76
2022/03/10 13:42:06;;;;;;;4.40;3.60;;;14.70;57.50;;;;;;4993097;28;20466;-75
2022/03/10 13:44:35;;;;;;;4.30;3.90;;;14.80;57.70;;;;;;4991857;28;20522;-75
2022/03/10 13:47:08;;;;;;;4.10;3.70;;;14.90;58.30;;;;;;4992736;28;20801;-76
2022/03/10 13:49:45;;;;;;;3.93;3.47;;;14.90;57.50;;;;;;4993322;28;20958;-75
2022/03/10 13:52:16;;;;;;;5.80;3.80;;;15.00;57.90;;;;;;4992417;28;20462;-75
2022/03/10 13:54:51;;;;;;;5.50;4.17;;;15.10;58.30;;;;;;4991473;28;20433;-75
2022/03/10 13:57:18;;;;;;;7.70;4.40;;;15.10;58.50;;;;;;4991723;28;20477;-75
2022/03/10 13:59:45;;;;;;;4.33;3.97;;;15.10;58.10;;;;;;4992579;28;20415;-75
2022/03/10 14:02:19;;;;;;;6.27;4.10;;;15.20;58.10;;;;;;4992025;28;20454;-76
2022/03/10 14:04:44;;;;;;;4.60;4.20;;;15.20;58.40;;;;;;4991077;28;20422;-75
2022/03/10 14:07:10;;;;;;;5.63;4.37;;;15.00;58.20;;;;;;4991938;28;20422;-76